Time;durP1;ratioP1;P1;durP2;ratioP2;P2;SDS_P1;SDS_P2;PMS_P1;PMS_P2;Temp;Humidity;BMP_temperature;BMP_pressure;BME280_temperature;BME280_humidity;BME280_pressure;Samples;Min_cycle;Max_cycle;Signal;HPM_P1;HPM_P2
2022/07/24 00:01:36;;;;;;;10.60;6.47;;;16.40;99.90;;;;;;4955720;29;20287;-79
2022/07/24 00:04:05;;;;;;;15.07;7.20;;;16.30;99.90;;;;;;4953380;29;20134;-79
2022/07/24 00:06:32;;;;;;;13.43;6.97;;;16.30;99.90;;;;;;4959091;28;20054;-79
2022/07/24 00:08:58;;;;;;;11.73;6.68;;;16.30;99.90;;;;;;4945835;29;20379;-80
2022/07/24 00:11:24;;;;;;;14.60;6.63;;;16.30;99.90;;;;;;4964968;28;20043;-79
2022/07/24 00:13:50;;;;;;;12.17;7.17;;;16.30;99.90;;;;;;4961712;28;20043;-79
2022/07/24 00:16:15;;;;;;;13.07;7.27;;;16.30;99.90;;;;;;4962098;29;20129;-79
2022/07/24 00:18:42;;;;;;;12.00;7.63;;;16.30;99.90;;;;;;4959945;29;20058;-80
2022/07/24 00:21:07;;;;;;;11.10;7.25;;;16.30;99.90;;;;;;4960786;29;20043;-79
2022/07/24 00:23:33;;;;;;;14.40;7.53;;;16.30;99.90;;;;;;4958247;29;20456;-80
2022/07/24 00:25:59;;;;;;;12.18;7.28;;;16.20;99.90;;;;;;4956030;29;20051;-80
2022/07/24 00:28:24;;;;;;;11.97;7.57;;;16.20;99.90;;;;;;4956110;29;20118;-77
2022/07/24 00:30:50;;;;;;;11.70;7.30;;;16.20;99.90;;;;;;4959073;29;20047;-79
2022/07/24 00:33:16;;;;;;;13.35;8.25;;;16.20;99.90;;;;;;4958527;29;20087;-80
2022/07/24 00:35:43;;;;;;;12.90;7.28;;;16.20;99.90;;;;;;4956736;29;20094;-80
2022/07/24 00:38:09;;;;;;;14.65;7.68;;;16.20;99.90;;;;;;4957655;29;20403;-79
2022/07/24 00:40:35;;;;;;;12.83;7.70;;;16.20;99.90;;;;;;4939927;29;20051;-80
2022/07/24 00:43:02;;;;;;;10.65;6.88;;;16.20;99.90;;;;;;4927196;29;20310;-79
2022/07/24 00:45:27;;;;;;;15.73;7.55;;;16.20;99.90;;;;;;4936161;29;20064;-80
2022/07/24 00:47:53;;;;;;;11.77;7.22;;;16.10;99.90;;;;;;4937191;29;20048;-80
2022/07/24 00:50:19;;;;;;;12.87;7.97;;;16.10;99.90;;;;;;4938496;29;20151;-78
2022/07/24 00:52:45;;;;;;;12.02;7.10;;;16.10;99.90;;;;;;4922977;29;20058;-79
2022/07/24 00:55:12;;;;;;;13.63;7.93;;;16.20;99.90;;;;;;4935458;29;20083;-78
2022/07/24 00:57:38;;;;;;;13.85;7.55;;;16.10;99.90;;;;;;4938936;29;20050;-79
2022/07/24 01:00:06;;;;;;;11.48;7.25;;;16.10;99.90;;;;;;4936620;29;20406;-80
2022/07/24 01:02:32;;;;;;;12.98;7.53;;;16.10;99.90;;;;;;4941514;29;20047;-79
2022/07/24 01:04:58;;;;;;;12.30;7.10;;;16.10;99.90;;;;;;4925425;29;20043;-80
2022/07/24 01:07:23;;;;;;;12.75;7.30;;;16.10;99.90;;;;;;4926635;29;20078;-80
2022/07/24 01:09:50;;;;;;;12.70;7.15;;;16.00;99.90;;;;;;4939617;29;20059;-80
2022/07/24 01:12:17;;;;;;;11.45;7.40;;;16.00;99.90;;;;;;4922602;29;20492;-78
2022/07/24 01:14:43;;;;;;;11.80;7.32;;;16.00;99.90;;;;;;4939036;29;20059;-80
2022/07/24 01:17:10;;;;;;;13.43;7.50;;;16.00;99.90;;;;;;4922020;29;20048;-79
2022/07/24 01:19:35;;;;;;;16.52;7.78;;;16.00;99.90;;;;;;4921421;29;20095;-80
2022/07/24 01:22:01;;;;;;;12.57;6.90;;;15.90;99.90;;;;;;4940308;29;20060;-79
2022/07/24 01:24:27;;;;;;;11.17;7.23;;;15.90;99.90;;;;;;4940462;29;20103;-80
2022/07/24 01:26:53;;;;;;;15.07;7.13;;;15.90;99.90;;;;;;4922014;29;20151;-80
2022/07/24 01:29:19;;;;;;;15.88;7.88;;;15.90;99.90;;;;;;4952707;29;20051;-79
2022/07/24 01:31:44;;;;;;;12.60;7.70;;;15.90;99.90;;;;;;4942251;29;20074;-79
2022/07/24 01:34:10;;;;;;;11.70;6.97;;;15.90;99.90;;;;;;4956921;29;20047;-80
2022/07/24 01:36:36;;;;;;;14.20;8.00;;;15.90;99.90;;;;;;4959552;29;20055;-79
2022/07/24 01:39:02;;;;;;;13.88;7.80;;;15.80;99.90;;;;;;4942821;29;20141;-79
2022/07/24 01:41:28;;;;;;;15.05;7.85;;;15.90;99.90;;;;;;4943347;29;20372;-80
2022/07/24 01:43:53;;;;;;;11.98;7.70;;;15.80;99.90;;;;;;4955288;29;20055;-80
2022/07/24 01:46:19;;;;;;;12.10;7.20;;;15.80;99.90;;;;;;4958265;28;20550;-78
2022/07/24 01:48:45;;;;;;;11.38;7.18;;;15.80;99.90;;;;;;4957830;29;20058;-78
2022/07/24 01:51:11;;;;;;;17.58;8.18;;;15.70;99.90;;;;;;4959949;29;20483;-80
2022/07/24 01:53:37;;;;;;;11.55;7.07;;;15.80;99.90;;;;;;4960666;28;20078;-80
2022/07/24 01:56:03;;;;;;;12.82;7.45;;;15.80;99.90;;;;;;4962884;29;20149;-80
2022/07/24 01:58:28;;;;;;;12.15;7.60;;;15.80;99.90;;;;;;4963153;29;20050;-79
2022/07/24 02:00:55;;;;;;;11.18;7.30;;;15.80;99.90;;;;;;4945162;29;20086;-79
2022/07/24 02:03:21;;;;;;;11.25;7.10;;;15.80;99.90;;;;;;4962232;29;20098;-80
2022/07/24 02:05:47;;;;;;;14.40;8.02;;;15.80;99.90;;;;;;4963631;29;20058;-80
2022/07/24 02:08:13;;;;;;;14.32;6.90;;;15.80;99.90;;;;;;4946123;29;20043;-80
2022/07/24 02:10:39;;;;;;;18.75;8.05;;;15.80;99.90;;;;;;4942242;29;20353;-78
2022/07/24 02:13:05;;;;;;;13.02;7.35;;;15.90;99.90;;;;;;4943132;29;20143;-78
2022/07/24 02:15:31;;;;;;;11.60;7.00;;;15.90;99.90;;;;;;4941146;29;20406;-78
2022/07/24 02:17:59;;;;;;;13.10;7.40;;;15.80;99.90;;;;;;4942585;29;20040;-80
2022/07/24 02:20:26;;;;;;;14.82;7.38;;;15.80;99.90;;;;;;4942848;29;20043;-77
2022/07/24 02:22:52;;;;;;;14.50;7.38;;;15.80;99.90;;;;;;4925723;29;20056;-80
2022/07/24 02:25:17;;;;;;;13.98;7.38;;;15.80;99.90;;;;;;4938038;29;20048;-78
2022/07/24 02:27:43;;;;;;;13.68;8.13;;;15.80;99.90;;;;;;4936224;29;20452;-81
2022/07/24 02:30:13;;;;;;;12.10;7.63;;;15.70;99.90;;;;;;4920345;29;20048;-79
2022/07/24 02:32:39;;;;;;;12.25;7.15;;;15.80;99.90;;;;;;4939625;29;20373;-79
2022/07/24 02:35:05;;;;;;;13.88;7.90;;;15.70;99.90;;;;;;4936169;29;20061;-79
2022/07/24 02:37:31;;;;;;;15.30;8.20;;;15.70;99.90;;;;;;4937428;29;20051;-79
2022/07/24 02:39:57;;;;;;;16.33;7.43;;;15.70;99.90;;;;;;4935441;29;20043;-79
2022/07/24 02:42:23;;;;;;;14.38;7.28;;;15.70;99.90;;;;;;4928465;29;20168;-78
2022/07/24 02:44:49;;;;;;;12.75;7.90;;;15.70;99.90;;;;;;4954785;29;20073;-80
2022/07/24 02:47:14;;;;;;;12.98;7.35;;;15.70;99.90;;;;;;4954462;29;20062;-80
2022/07/24 02:49:40;;;;;;;16.13;8.25;;;15.70;99.90;;;;;;4953578;29;20043;-82
2022/07/24 02:52:06;;;;;;;14.68;7.97;;;15.70;99.90;;;;;;4955625;29;20058;-81
2022/07/24 02:54:31;;;;;;;13.55;7.60;;;15.70;99.90;;;;;;4956218;29;20051;-81
2022/07/24 02:56:57;;;;;;;15.85;7.85;;;15.70;99.90;;;;;;4923540;29;20051;-80
2022/07/24 02:59:23;;;;;;;16.38;7.90;;;15.70;99.90;;;;;;4939643;29;20051;-80
2022/07/24 03:01:49;;;;;;;16.73;7.95;;;15.70;99.90;;;;;;4956265;29;20491;-80
2022/07/24 03:04:15;;;;;;;15.20;7.55;;;15.60;99.90;;;;;;4956072;29;20069;-81
2022/07/24 03:06:40;;;;;;;13.93;7.82;;;15.60;99.90;;;;;;4956223;28;20050;-81
2022/07/24 03:09:06;;;;;;;14.07;7.85;;;15.60;99.90;;;;;;4938771;29;20059;-82
2022/07/24 03:11:32;;;;;;;15.60;8.10;;;15.60;99.90;;;;;;4955243;29;20094;-82
2022/07/24 03:13:58;;;;;;;18.70;7.90;;;15.60;99.90;;;;;;4956233;29;20502;-81
2022/07/24 03:16:23;;;;;;;14.50;8.45;;;15.60;99.90;;;;;;4939420;29;20043;-82
2022/07/24 03:18:49;;;;;;;14.88;8.57;;;15.60;99.90;;;;;;4923151;29;20051;-81
2022/07/24 03:21:16;;;;;;;16.25;7.25;;;15.60;99.90;;;;;;4956401;29;20047;-79
2022/07/24 03:23:41;;;;;;;14.13;7.68;;;15.50;99.90;;;;;;4954953;29;20058;-80
2022/07/24 03:26:08;;;;;;;13.85;8.38;;;15.50;99.90;;;;;;4938480;29;20050;-81
2022/07/24 03:28:34;;;;;;;15.45;8.45;;;15.50;99.90;;;;;;4955188;28;20089;-80
2022/07/24 03:31:00;;;;;;;14.13;8.43;;;15.50;99.90;;;;;;4954693;29;20054;-81
2022/07/24 03:33:27;;;;;;;13.60;8.35;;;15.50;99.90;;;;;;4954604;29;20399;-81
2022/07/24 03:35:53;;;;;;;12.60;7.68;;;15.50;99.90;;;;;;4956049;28;20099;-81
2022/07/24 03:38:19;;;;;;;18.92;8.30;;;15.50;99.90;;;;;;4938525;29;20047;-80
2022/07/24 03:40:45;;;;;;;14.00;7.95;;;15.50;99.90;;;;;;4954635;29;20440;-81
2022/07/24 03:43:11;;;;;;;13.32;8.35;;;15.50;99.90;;;;;;4955230;29;20054;-81
2022/07/24 03:45:37;;;;;;;15.50;7.82;;;15.50;99.90;;;;;;4953870;29;20066;-81
2022/07/24 03:48:03;;;;;;;13.50;7.95;;;15.50;99.90;;;;;;4955851;29;20065;-82
2022/07/24 03:50:29;;;;;;;14.27;8.70;;;15.60;99.90;;;;;;4938712;29;20114;-81
2022/07/24 03:52:55;;;;;;;13.25;7.53;;;15.60;99.90;;;;;;4954024;29;20564;-83
2022/07/24 03:55:21;;;;;;;15.05;7.80;;;15.50;99.90;;;;;;4954644;29;20048;-81
2022/07/24 03:57:46;;;;;;;13.02;7.97;;;15.60;99.90;;;;;;4955397;29;20043;-81
2022/07/24 04:00:13;;;;;;;17.10;8.77;;;15.60;99.90;;;;;;4954074;29;20091;-81
2022/07/24 04:02:39;;;;;;;13.90;7.63;;;15.60;99.90;;;;;;4938438;29;20054;-80
2022/07/24 04:05:08;;;;;;;13.57;8.23;;;15.60;99.90;;;;;;4953812;29;20491;-81
2022/07/24 04:07:35;;;;;;;14.25;7.70;;;15.60;99.90;;;;;;4938116;29;20074;-81
2022/07/24 04:10:01;;;;;;;14.00;7.85;;;15.60;99.90;;;;;;4955121;29;20098;-81
2022/07/24 04:12:26;;;;;;;13.40;7.90;;;15.60;99.90;;;;;;4955481;29;20489;-81
2022/07/24 04:14:52;;;;;;;14.88;8.27;;;15.70;99.90;;;;;;4957287;29;20205;-80
2022/07/24 04:17:18;;;;;;;13.98;8.23;;;15.70;99.90;;;;;;4961639;28;20043;-80
2022/07/24 04:19:44;;;;;;;13.57;7.82;;;15.70;99.90;;;;;;4945675;29;20047;-80
2022/07/24 04:22:09;;;;;;;13.82;7.80;;;15.80;99.90;;;;;;4961904;28;20145;-81
2022/07/24 04:24:35;;;;;;;12.98;7.72;;;15.70;99.90;;;;;;4958919;29;20051;-80
2022/07/24 04:27:06;;;;;;;16.27;8.20;;;15.70;99.90;;;;;;4955739;29;20109;-80
2022/07/24 04:29:32;;;;;;;15.57;7.93;;;15.70;99.90;;;;;;4957916;28;20039;-80
2022/07/24 04:31:58;;;;;;;14.07;8.30;;;15.70;99.90;;;;;;4958483;29;20045;-81
2022/07/24 04:34:24;;;;;;;13.07;7.93;;;15.70;99.90;;;;;;4957254;29;20352;-81
2022/07/24 04:36:50;;;;;;;14.65;7.85;;;15.80;99.90;;;;;;4938914;29;20051;-81
2022/07/24 04:39:16;;;;;;;13.10;8.15;;;15.80;99.90;;;;;;4956046;29;20063;-81
2022/07/24 04:41:42;;;;;;;14.50;8.35;;;15.80;99.90;;;;;;4958977;28;20043;-80
2022/07/24 04:44:07;;;;;;;17.17;8.85;;;15.80;99.90;;;;;;4929357;29;20047;-80
2022/07/24 04:46:33;;;;;;;17.52;8.60;;;15.90;99.90;;;;;;4929329;29;20377;-80
2022/07/24 04:48:59;;;;;;;15.00;7.85;;;16.00;99.90;;;;;;4960608;29;20051;-80
2022/07/24 04:51:26;;;;;;;14.32;8.48;;;16.00;99.90;;;;;;4942765;29;20055;-80
2022/07/24 04:53:54;;;;;;;16.93;9.17;;;16.00;99.90;;;;;;4959617;29;20051;-80
2022/07/24 04:56:20;;;;;;;14.73;8.65;;;16.00;99.90;;;;;;4958295;29;20050;-81
2022/07/24 04:58:47;;;;;;;15.07;8.63;;;16.00;99.90;;;;;;4959653;29;20051;-81
2022/07/24 05:01:13;;;;;;;12.90;8.55;;;16.10;99.90;;;;;;4959880;29;20055;-80
2022/07/24 05:03:39;;;;;;;13.45;8.40;;;16.10;99.90;;;;;;4959405;29;20067;-81
2022/07/24 05:06:05;;;;;;;16.10;9.25;;;16.10;99.90;;;;;;4957705;29;20047;-82
2022/07/24 05:08:31;;;;;;;17.88;8.98;;;16.10;99.90;;;;;;4940890;29;20103;-81
2022/07/24 05:10:57;;;;;;;15.68;9.32;;;16.20;99.90;;;;;;4958310;29;20498;-81
2022/07/24 05:13:22;;;;;;;16.35;8.80;;;16.20;99.90;;;;;;4957217;29;20471;-81
2022/07/24 05:15:48;;;;;;;16.05;8.65;;;16.20;99.90;;;;;;4956996;29;20043;-82
2022/07/24 05:18:14;;;;;;;14.50;8.57;;;16.20;99.90;;;;;;4958482;28;20482;-80
2022/07/24 05:20:40;;;;;;;16.40;8.98;;;16.20;99.90;;;;;;4941567;29;20443;-80
2022/07/24 05:23:06;;;;;;;16.70;9.15;;;16.30;99.90;;;;;;4957579;29;20114;-80
2022/07/24 05:25:31;;;;;;;15.32;8.60;;;16.40;99.90;;;;;;4941392;29;20145;-81
2022/07/24 05:27:57;;;;;;;18.90;9.90;;;16.40;99.90;;;;;;4957885;29;20097;-81
2022/07/24 05:30:23;;;;;;;17.33;9.70;;;16.50;99.90;;;;;;4957940;28;20125;-81
2022/07/24 05:32:48;;;;;;;21.40;10.18;;;16.70;99.90;;;;;;4958329;29;20058;-80
2022/07/24 05:35:14;;;;;;;19.08;10.10;;;16.70;99.90;;;;;;4940677;29;20047;-82
2022/07/24 05:37:40;;;;;;;17.90;10.20;;;16.80;99.90;;;;;;4957761;28;20130;-77
2022/07/24 05:40:06;;;;;;;21.95;11.57;;;16.90;99.90;;;;;;4940521;29;20145;-79
2022/07/24 05:42:32;;;;;;;20.33;11.57;;;17.00;99.90;;;;;;4957197;29;20051;-80
2022/07/24 05:44:58;;;;;;;18.83;11.52;;;17.00;99.90;;;;;;4956231;29;20538;-81
2022/07/24 05:47:24;;;;;;;18.67;11.23;;;17.00;99.90;;;;;;4957140;29;20083;-81
2022/07/24 05:49:49;;;;;;;20.10;11.53;;;17.10;99.90;;;;;;4957325;28;20050;-80
2022/07/24 05:52:15;;;;;;;25.88;12.88;;;17.00;99.90;;;;;;4955982;28;20051;-81
2022/07/24 05:54:41;;;;;;;18.33;11.40;;;17.00;99.90;;;;;;4958346;28;20051;-82
2022/07/24 05:57:07;;;;;;;22.52;12.35;;;17.10;99.90;;;;;;4942411;29;20089;-81
2022/07/24 05:59:32;;;;;;;22.83;12.02;;;17.10;99.90;;;;;;4959280;29;20046;-79
2022/07/24 06:01:59;;;;;;;21.98;13.38;;;17.20;99.90;;;;;;4960801;28;20082;-80
2022/07/24 06:04:25;;;;;;;22.45;12.95;;;17.30;99.90;;;;;;4958386;29;20131;-78
2022/07/24 06:06:51;;;;;;;24.27;14.60;;;17.40;99.90;;;;;;4942523;29;20464;-79
2022/07/24 06:09:17;;;;;;;21.07;12.67;;;17.50;99.90;;;;;;4957333;29;20055;-81
2022/07/24 06:11:42;;;;;;;21.67;13.90;;;17.60;99.90;;;;;;4958986;29;20059;-81
2022/07/24 06:14:08;;;;;;;22.47;12.90;;;17.70;99.90;;;;;;4958111;28;20050;-83
2022/07/24 06:16:34;;;;;;;26.77;13.90;;;17.70;99.90;;;;;;4956837;29;20070;-80
2022/07/24 06:19:00;;;;;;;22.97;13.90;;;17.80;99.90;;;;;;4956141;29;20039;-79
2022/07/24 06:21:26;;;;;;;23.55;14.00;;;17.90;99.90;;;;;;4956846;28;20055;-81
2022/07/24 06:23:52;;;;;;;28.00;13.52;;;17.90;99.90;;;;;;4940363;29;20093;-81
2022/07/24 06:26:18;;;;;;;24.37;14.50;;;18.00;99.90;;;;;;4956178;29;20483;-78
2022/07/24 06:28:43;;;;;;;23.10;14.20;;;18.00;99.90;;;;;;4955968;29;20155;-80
2022/07/24 06:31:09;;;;;;;25.87;14.87;;;18.20;99.90;;;;;;4940452;29;20145;-80
2022/07/24 06:33:35;;;;;;;25.20;15.00;;;18.20;99.90;;;;;;4956145;28;20078;-79
2022/07/24 06:36:01;;;;;;;25.40;14.90;;;18.20;99.90;;;;;;4957438;28;20047;-76
2022/07/24 06:38:26;;;;;;;25.00;14.30;;;18.40;99.90;;;;;;4955636;29;20126;-78
2022/07/24 06:40:52;;;;;;;21.13;14.37;;;18.40;99.90;;;;;;4940616;29;20047;-78
2022/07/24 06:43:18;;;;;;;29.13;15.80;;;18.50;99.90;;;;;;4940057;29;20083;-77
2022/07/24 06:45:44;;;;;;;26.20;15.10;;;18.60;99.90;;;;;;4939274;29;20066;-78
2022/07/24 06:48:09;;;;;;;27.90;16.00;;;18.70;99.90;;;;;;4956350;28;20055;-79
2022/07/24 06:50:35;;;;;;;28.23;16.70;;;18.80;99.90;;;;;;4956062;28;20044;-75
2022/07/24 06:53:03;;;;;;;32.20;16.80;;;18.90;99.90;;;;;;4939163;29;20066;-78
2022/07/24 06:55:28;;;;;;;29.63;16.58;;;19.00;99.90;;;;;;4923335;29;20049;-78
2022/07/24 06:57:54;;;;;;;26.67;16.20;;;19.10;99.90;;;;;;4955569;29;20039;-78
2022/07/24 07:00:20;;;;;;;25.10;15.57;;;19.20;99.90;;;;;;4938891;29;20059;-76
2022/07/24 07:02:46;;;;;;;28.63;17.97;;;19.30;99.90;;;;;;4955073;28;20066;-77
2022/07/24 07:05:11;;;;;;;34.33;16.60;;;19.40;99.90;;;;;;4954330;29;20531;-77
2022/07/24 07:07:38;;;;;;;29.83;17.80;;;19.50;99.90;;;;;;4956375;28;20134;-78
2022/07/24 07:10:05;;;;;;;30.20;16.95;;;19.60;99.90;;;;;;4956219;28;20111;-80
2022/07/24 07:12:31;;;;;;;27.75;17.10;;;19.70;99.90;;;;;;4957054;28;20114;-79
2022/07/24 07:14:59;;;;;;;28.67;17.40;;;19.80;99.90;;;;;;4939573;29;20094;-76
2022/07/24 07:17:25;;;;;;;27.90;16.40;;;20.00;99.90;;;;;;4955727;29;20450;-78
2022/07/24 07:19:51;;;;;;;26.05;15.88;;;20.10;99.90;;;;;;4956253;28;20395;-79
2022/07/24 07:22:17;;;;;;;26.77;16.37;;;20.20;99.90;;;;;;4939139;29;20055;-77
2022/07/24 07:24:43;;;;;;;36.37;15.20;;;;;;;;;;4955097;28;20083;-80
2022/07/24 07:27:09;;;;;;;26.95;14.43;;;20.40;99.90;;;;;;4955414;29;20373;-78
2022/07/24 07:29:34;;;;;;;28.13;15.00;;;20.40;99.90;;;;;;4939769;29;20436;-79
2022/07/24 07:32:00;;;;;;;23.70;13.53;;;20.50;99.90;;;;;;4955613;29;20048;-79
2022/07/24 07:34:26;;;;;;;25.53;14.30;;;20.70;99.90;;;;;;4925115;29;20341;-77
2022/07/24 07:36:53;;;;;;;26.63;14.70;;;20.80;99.90;;;;;;4956626;29;20050;-79
2022/07/24 07:39:18;;;;;;;24.23;12.63;;;20.90;99.90;;;;;;4956046;29;20141;-77
2022/07/24 07:41:44;;;;;;;23.93;12.57;;;21.00;99.90;;;;;;4956939;28;20079;-75
2022/07/24 07:44:10;;;;;;;21.80;12.17;;;21.00;99.90;;;;;;4957067;28;20050;-83
2022/07/24 07:46:36;;;;;;;24.57;12.50;;;21.10;99.90;;;;;;4955352;28;20098;-78
2022/07/24 07:49:02;;;;;;;24.97;12.53;;;21.20;99.90;;;;;;4955477;29;20059;-80
2022/07/24 07:51:28;;;;;;;20.75;11.93;;;21.40;99.90;;;;;;4955282;29;20051;-77
2022/07/24 07:53:53;;;;;;;23.37;12.40;;;21.40;99.90;;;;;;4957339;29;20126;-81
2022/07/24 07:56:20;;;;;;;19.60;11.47;;;21.50;99.90;;;;;;4940560;29;20472;-79
2022/07/24 07:58:46;;;;;;;21.15;11.15;;;21.60;99.90;;;;;;4956792;29;20387;-79
2022/07/24 08:01:12;;;;;;;22.20;11.90;;;21.70;99.90;;;;;;4957458;29;20078;-76
2022/07/24 08:03:44;;;;;;;19.48;10.52;;;21.80;99.90;;;;;;4956557;29;20051;-77
2022/07/24 08:06:10;;;;;;;18.00;10.17;;;21.90;99.90;;;;;;4956138;29;20399;-79
2022/07/24 08:08:35;;;;;;;18.30;9.23;;;22.00;99.90;;;;;;4956934;28;20058;-78
2022/07/24 08:11:01;;;;;;;16.60;8.23;;;22.10;99.90;;;;;;4955041;29;20463;-77
2022/07/24 08:13:27;;;;;;;17.57;7.10;;;22.30;99.90;;;;;;4955844;29;20047;-76
2022/07/24 08:15:53;;;;;;;9.70;5.53;;;22.30;99.90;;;;;;4954072;28;20090;-80
2022/07/24 08:18:24;;;;;;;11.60;6.22;;;22.50;99.90;;;;;;4938997;29;20051;-79
2022/07/24 08:20:50;;;;;;;12.50;6.60;;;22.60;99.90;;;;;;4937904;29;20047;-78
2022/07/24 08:23:16;;;;;;;13.15;5.50;;;22.70;99.90;;;;;;4938215;29;20047;-79
2022/07/24 08:25:42;;;;;;;11.07;5.80;;;22.80;99.90;;;;;;4956294;28;20054;-80
2022/07/24 08:28:08;;;;;;;10.50;5.27;;;23.00;99.90;;;;;;4955395;28;20522;-78
2022/07/24 08:30:34;;;;;;;11.20;5.37;;;23.10;99.90;;;;;;4955940;28;20157;-79
2022/07/24 08:32:59;;;;;;;9.63;4.82;;;23.30;99.90;;;;;;4955527;29;20291;-80
2022/07/24 08:35:25;;;;;;;9.33;5.00;;;23.50;99.90;;;;;;4956957;29;20534;-80
2022/07/24 08:37:51;;;;;;;8.37;4.30;;;23.60;99.90;;;;;;4958550;28;20047;-80
2022/07/24 08:40:17;;;;;;;9.67;4.37;;;23.70;99.70;;;;;;4938240;29;20051;-79
2022/07/24 08:42:43;;;;;;;9.25;3.65;;;23.80;99.90;;;;;;4938673;29;20113;-78
2022/07/24 08:45:09;;;;;;;8.50;4.18;;;23.90;99.90;;;;;;4956320;29;20051;-78
2022/07/24 08:47:38;;;;;;;6.60;3.40;;;23.90;99.90;;;;;;4957800;28;20047;-77
2022/07/24 08:50:05;;;;;;;7.18;3.90;;;23.90;99.80;;;;;;4956895;29;20071;-78
2022/07/24 08:52:33;;;;;;;10.32;3.88;;;24.00;99.90;;;;;;4955875;29;20179;-80
2022/07/24 08:54:59;;;;;;;6.95;3.85;;;24.00;99.70;;;;;;4939559;29;20125;-79
2022/07/24 08:57:25;;;;;;;6.47;4.10;;;24.00;99.00;;;;;;4954619;29;20129;-80
2022/07/24 08:59:52;;;;;;;6.97;3.63;;;24.00;98.90;;;;;;4955496;29;20047;-83
2022/07/24 09:02:18;;;;;;;7.75;4.10;;;24.10;99.20;;;;;;4956156;29;20047;-79
2022/07/24 09:04:46;;;;;;;6.07;3.65;;;24.10;99.80;;;;;;4926040;29;20083;-81
2022/07/24 09:07:15;;;;;;;7.15;3.97;;;24.20;99.00;;;;;;4958554;29;20043;-80
2022/07/24 09:09:42;;;;;;;8.70;3.90;;;24.10;98.60;;;;;;4956960;28;20051;-80
2022/07/24 09:12:08;;;;;;;5.75;3.47;;;24.10;99.50;;;;;;4956619;29;20097;-79
2022/07/24 09:14:39;;;;;;;8.48;3.97;;;24.10;99.20;;;;;;4939033;29;20142;-82
2022/07/24 09:17:08;;;;;;;8.77;3.65;;;24.30;98.60;;;;;;4938889;29;20047;-78
2022/07/24 09:19:52;;;;;;;7.80;3.70;;;24.40;98.80;;;;;;4956249;29;20075;-81
2022/07/24 09:22:39;;;;;;;6.30;3.70;;;24.50;98.10;;;;;;4957230;28;20047;-80
2022/07/24 09:25:08;;;;;;;8.05;3.50;;;24.50;97.90;;;;;;4955170;29;20054;-78
2022/07/24 09:27:35;;;;;;;6.55;3.42;;;24.40;98.40;;;;;;4956636;28;20090;-77
2022/07/24 09:30:03;;;;;;;6.97;3.78;;;24.50;98.10;;;;;;4958567;28;20463;-81
2022/07/24 09:32:29;;;;;;;8.35;3.72;;;24.60;97.80;;;;;;4958386;28;20051;-80
2022/07/24 09:34:56;;;;;;;7.43;4.00;;;24.60;97.20;;;;;;4956555;29;20069;-80
2022/07/24 09:37:22;;;;;;;8.18;4.00;;;24.60;97.80;;;;;;4957467;29;20101;-78
2022/07/24 09:39:48;;;;;;;7.38;3.60;;;24.70;98.20;;;;;;4958077;28;20122;-76
2022/07/24 09:42:18;;;;;;;6.18;3.50;;;24.80;97.80;;;;;;4958510;29;20447;-79
2022/07/24 09:44:44;;;;;;;7.53;4.00;;;25.00;97.40;;;;;;4958771;28;20436;-78
2022/07/24 09:47:11;;;;;;;8.15;3.90;;;25.10;97.50;;;;;;4956790;29;20400;-83
2022/07/24 09:49:38;;;;;;;7.75;3.30;;;25.10;97.10;;;;;;4958503;29;20062;-80
2022/07/24 09:52:04;;;;;;;6.95;3.78;;;25.00;96.90;;;;;;4958505;28;20047;-79
2022/07/24 09:54:32;;;;;;;7.13;3.40;;;25.00;96.80;;;;;;4959176;28;20047;-79
2022/07/24 09:57:18;;;;;;;5.90;3.13;;;25.20;97.30;;;;;;4960252;29;20388;-77
2022/07/24 10:00:13;;;;;;;7.60;2.65;;;25.40;95.80;;;;;;4959615;29;20054;-83
2022/07/24 10:02:44;;;;;;;5.32;2.60;;;25.50;95.20;;;;;;4945972;29;20068;-81
2022/07/24 10:05:11;;;;;;;5.63;2.80;;;25.50;95.50;;;;;;4941445;29;20049;-80
2022/07/24 10:07:38;;;;;;;4.50;2.58;;;25.40;95.10;;;;;;4957740;29;20145;-80
2022/07/24 10:10:04;;;;;;;5.47;2.80;;;25.40;95.10;;;;;;4959000;28;20532;-81
2022/07/24 10:12:31;;;;;;;5.18;2.92;;;25.30;94.70;;;;;;4941612;29;20079;-80
2022/07/24 10:15:00;;;;;;;5.03;2.60;;;25.40;95.40;;;;;;4958087;29;20118;-81
2022/07/24 10:18:11;;;;;;;6.55;2.40;;;25.60;95.50;;;;;;4925017;29;20122;-79
2022/07/24 10:20:39;;;;;;;4.78;2.53;;;25.70;94.50;;;;;;4941295;29;20141;-79
2022/07/24 10:23:07;;;;;;;6.15;2.45;;;25.80;94.80;;;;;;4957467;29;20051;-79
2022/07/24 10:26:07;;;;;;;4.28;2.30;;;25.90;94.40;;;;;;4957777;29;20051;-78
2022/07/24 10:28:36;;;;;;;4.53;2.47;;;25.90;93.50;;;;;;4935549;29;20176;-80
2022/07/24 10:31:04;;;;;;;5.32;2.25;;;25.80;93.70;;;;;;4957018;29;20122;-79
2022/07/24 10:33:30;;;;;;;6.68;2.15;;;25.90;93.90;;;;;;4941379;29;20047;-78
2022/07/24 10:36:00;;;;;;;4.30;2.22;;;26.00;94.30;;;;;;4925675;29;20059;-79
2022/07/24 10:38:53;;;;;;;6.00;1.90;;;26.10;94.50;;;;;;4959442;28;20054;-81
2022/07/24 10:41:25;;;;;;;4.68;2.13;;;26.20;93.50;;;;;;4956839;29;20050;-82
2022/07/24 10:44:18;;;;;;;3.75;2.13;;;26.10;93.10;;;;;;4940163;29;20057;-79
2022/07/24 10:46:57;;;;;;;5.38;2.28;;;26.00;93.50;;;;;;4955415;28;20431;-78
2022/07/24 10:49:38;;;;;;;6.70;2.13;;;26.10;92.90;;;;;;4956505;29;20046;-77
2022/07/24 10:52:04;;;;;;;4.80;2.38;;;26.20;93.40;;;;;;4955229;29;20051;-77
2022/07/24 10:54:29;;;;;;;5.38;2.20;;;26.40;93.20;;;;;;4956023;29;20127;-78
2022/07/24 10:56:55;;;;;;;4.15;2.20;;;26.50;92.70;;;;;;4955409;29;20509;-79
2022/07/24 10:59:37;;;;;;;4.25;2.20;;;26.40;92.20;;;;;;4938995;29;20054;-77
2022/07/24 11:02:32;;;;;;;4.93;2.00;;;26.20;92.30;;;;;;4955175;29;20053;-77
2022/07/24 11:05:34;;;;;;;5.60;2.28;;;26.30;92.60;;;;;;4937230;29;20360;-76
2022/07/24 11:08:13;;;;;;;6.93;2.70;;;26.40;92.30;;;;;;4900827;29;20052;-80
2022/07/24 11:10:51;;;;;;;5.05;2.70;;;26.50;91.90;;;;;;4932973;29;20118;-79
2022/07/24 11:13:32;;;;;;;4.40;2.20;;;26.50;92.30;;;;;;4956757;29;20126;-80
2022/07/24 11:16:21;;;;;;;5.57;2.30;;;26.60;91.60;;;;;;4954552;29;20518;-78
2022/07/24 11:18:47;;;;;;;4.93;2.60;;;26.60;92.20;;;;;;4955327;29;20066;-78
2022/07/24 11:21:31;;;;;;;6.47;2.20;;;26.70;91.80;;;;;;4939779;29;20492;-77
2022/07/24 11:24:21;;;;;;;4.55;2.50;;;26.60;91.80;;;;;;4955877;29;20047;-83
2022/07/24 11:27:12;;;;;;;5.47;2.60;;;26.70;91.40;;;;;;4940124;29;20415;-81
2022/07/24 11:29:39;;;;;;;4.65;2.35;;;26.70;91.20;;;;;;4939740;29;20055;-78
2022/07/24 11:32:20;;;;;;;5.00;2.42;;;26.70;91.10;;;;;;4955503;29;20055;-83
2022/07/24 11:34:51;;;;;;;5.13;2.25;;;26.80;91.60;;;;;;4957096;28;20051;-81
2022/07/24 11:37:17;;;;;;;4.53;2.80;;;26.90;91.30;;;;;;4955787;29;20480;-79
2022/07/24 11:39:46;;;;;;;6.60;2.53;;;27.00;90.40;;;;;;4954921;29;20080;-76
2022/07/24 11:42:14;;;;;;;6.18;2.92;;;27.00;90.00;;;;;;4956703;29;20496;-78
2022/07/24 11:44:48;;;;;;;5.00;2.70;;;27.00;90.20;;;;;;4939790;29;20451;-79
2022/07/24 11:47:26;;;;;;;5.28;2.50;;;26.90;87.40;;;;;;4954342;29;20207;-78
2022/07/24 11:49:53;;;;;;;5.72;2.40;;;26.90;90.20;;;;;;4953690;28;20058;-77
2022/07/24 11:52:24;;;;;;;4.93;2.40;;;27.00;90.90;;;;;;4958999;29;20047;-74
2022/07/24 11:54:52;;;;;;;5.20;2.28;;;27.20;90.00;;;;;;4940301;29;20058;-79
2022/07/24 11:57:30;;;;;;;4.88;2.42;;;27.30;90.60;;;;;;4955838;29;20043;-77
2022/07/24 11:59:59;;;;;;;5.90;2.58;;;27.30;90.10;;;;;;4955566;28;20047;-81
2022/07/24 12:02:26;;;;;;;5.18;2.47;;;27.40;90.10;;;;;;4955970;29;20358;-76
2022/07/24 12:04:52;;;;;;;5.95;2.72;;;27.40;90.40;;;;;;4954591;29;20048;-76
2022/07/24 12:07:24;;;;;;;4.50;2.58;;;27.50;90.00;;;;;;4940277;29;20109;-78
2022/07/24 12:09:59;;;;;;;10.55;2.63;;;27.60;89.10;;;;;;4955398;29;20138;-77
2022/07/24 12:12:26;;;;;;;5.57;2.90;;;27.60;88.20;;;;;;4956245;28;20372;-78
2022/07/24 12:15:08;;;;;;;5.03;2.63;;;27.60;88.50;;;;;;4954837;29;20051;-79
2022/07/24 12:17:51;;;;;;;5.53;2.53;;;27.60;87.20;;;;;;4939956;29;20051;-79
2022/07/24 12:20:20;;;;;;;4.32;2.13;;;27.60;87.50;;;;;;4955007;28;20127;-77
2022/07/24 12:22:47;;;;;;;4.32;2.72;;;27.60;87.90;;;;;;4953863;29;20110;-79
2022/07/24 12:25:14;;;;;;;3.40;2.30;;;27.60;88.90;;;;;;4954740;28;20069;-79
2022/07/24 12:27:43;;;;;;;8.05;3.05;;;27.60;88.10;;;;;;4953924;29;20080;-76
2022/07/24 12:30:24;;;;;;;4.05;2.40;;;27.60;88.10;;;;;;4921754;29;20047;-79
2022/07/24 12:32:54;;;;;;;6.13;2.70;;;27.60;88.60;;;;;;4955214;29;20051;-76
2022/07/24 12:35:20;;;;;;;6.43;2.80;;;27.60;89.80;;;;;;4955186;29;20102;-81
2022/07/24 12:37:46;;;;;;;7.30;2.83;;;27.70;88.50;;;;;;4954221;29;20047;-79
2022/07/24 12:40:27;;;;;;;4.72;2.85;;;27.80;88.10;;;;;;4955435;29;20129;-76
2022/07/24 12:43:01;;;;;;;4.57;2.70;;;27.80;88.50;;;;;;4954863;28;20083;-78